createdAt,value
2022-07-30T00:01:37.765Z,93.80
2022-07-30T00:04:05.256Z,94.00
2022-07-30T00:06:32.863Z,94.00
2022-07-30T00:09:00.142Z,93.90
2022-07-30T00:11:28.168Z,93.50
2022-07-30T00:13:55.965Z,93.60
2022-07-30T00:16:23.604Z,93.80
2022-07-30T00:18:50.853Z,94.10
2022-07-30T00:21:36.272Z,94.40
2022-07-30T00:24:08.545Z,94.60
2022-07-30T00:26:35.926Z,94.80
2022-07-30T00:29:04.104Z,94.80
2022-07-30T00:31:31.868Z,94.80
2022-07-30T00:33:59.100Z,94.70
2022-07-30T00:36:26.365Z,94.70
2022-07-30T00:38:53.619Z,94.80
2022-07-30T00:41:21.967Z,94.70
2022-07-30T00:43:49.294Z,94.90
2022-07-30T00:46:16.541Z,95.00
2022-07-30T00:48:44.323Z,95.10
2022-07-30T00:51:11.946Z,95.40
2022-07-30T00:53:39.163Z,95.60
2022-07-30T00:56:06.532Z,95.90
2022-07-30T00:58:33.852Z,95.90
2022-07-30T01:01:01.210Z,95.90
2022-07-30T01:03:28.946Z,95.80
2022-07-30T01:05:56.393Z,95.70
2022-07-30T01:08:23.607Z,95.80
2022-07-30T01:10:52.404Z,95.70
2022-07-30T01:13:19.735Z,95.90
2022-07-30T01:15:47.905Z,95.90
2022-07-30T01:18:16.142Z,96.40
2022-07-30T01:21:07.588Z,96.60
2022-07-30T01:23:44.089Z,96.90
2022-07-30T01:26:14.980Z,97.00
2022-07-30T01:28:46.476Z,97.00
2022-07-30T01:31:14.839Z,97.10
2022-07-30T01:33:47.630Z,97.10
2022-07-30T01:36:20.901Z,97.10
2022-07-30T01:38:51.317Z,97.10
2022-07-30T01:41:20.458Z,97.30
2022-07-30T01:43:48.942Z,97.50
2022-07-30T01:46:17.785Z,97.40
2022-07-30T01:48:48.462Z,97.40
2022-07-30T01:51:19.362Z,97.50
2022-07-30T01:53:51.078Z,97.60
2022-07-30T01:56:24.675Z,97.60
2022-07-30T01:58:55.557Z,97.70
2022-07-30T02:01:25.790Z,97.80
2022-07-30T02:04:00.514Z,97.80
2022-07-30T02:06:37.308Z,97.90
2022-07-30T02:09:10.774Z,97.90
2022-07-30T02:12:07.790Z,98.00
2022-07-30T02:15:06.005Z,98.20
2022-07-30T02:17:45.188Z,98.30
2022-07-30T02:20:14.641Z,98.10
2022-07-30T02:22:47.293Z,98.10
2022-07-30T02:25:20.681Z,98.10
2022-07-30T02:27:56.534Z,97.90
2022-07-30T02:30:28.048Z,97.70
2022-07-30T02:33:02.322Z,97.40
2022-07-30T02:35:30.345Z,97.30
2022-07-30T02:37:59.874Z,97.10
2022-07-30T02:40:28.520Z,97.10
2022-07-30T02:42:57.158Z,96.90
2022-07-30T02:45:28.114Z,97.10
2022-07-30T02:48:01.184Z,97.20
2022-07-30T02:50:29.227Z,97.40
2022-07-30T02:52:59.460Z,97.50
2022-07-30T02:55:29.341Z,97.70
2022-07-30T02:57:57.542Z,97.90
2022-07-30T03:00:27.309Z,97.90
2022-07-30T03:02:57.154Z,97.90
2022-07-30T03:05:26.553Z,98.00
2022-07-30T03:07:57.781Z,98.00
2022-07-30T03:10:26.232Z,97.90
2022-07-30T03:12:54.009Z,97.80
2022-07-30T03:15:21.446Z,97.70
2022-07-30T03:17:55.559Z,98.00
2022-07-30T03:20:29.654Z,97.70
2022-07-30T03:22:59.613Z,97.70
2022-07-30T03:25:32.203Z,97.60
2022-07-30T03:28:03.836Z,97.60
2022-07-30T03:30:33.641Z,97.80
2022-07-30T03:33:02.517Z,97.90
2022-07-30T03:35:31.353Z,98.00
2022-07-30T03:38:00.603Z,98.10
2022-07-30T03:40:28.868Z,98.20
2022-07-30T03:42:56.892Z,98.20
2022-07-30T03:45:26.581Z,98.30
2022-07-30T03:48:00.084Z,98.30
2022-07-30T03:50:29.196Z,98.40
2022-07-30T03:52:56.846Z,98.30
2022-07-30T03:55:25.979Z,98.50
2022-07-30T03:58:11.820Z,98.40
2022-07-30T04:00:40.697Z,98.60
2022-07-30T04:03:08.506Z,98.50
2022-07-30T04:05:48.182Z,98.50
2022-07-30T04:08:16.257Z,98.40
2022-07-30T04:10:44.439Z,98.30
2022-07-30T04:13:17.749Z,98.20
2022-07-30T04:16:40.927Z,98.20
2022-07-30T04:19:11.188Z,98.00
2022-07-30T04:21:41.530Z,98.00
2022-07-30T04:24:12.775Z,98.10
2022-07-30T04:26:40.639Z,99.00
2022-07-30T04:29:13.497Z,99.30
2022-07-30T04:31:42.191Z,99.30
2022-07-30T04:34:49.195Z,99.10
2022-07-30T04:37:24.400Z,98.60
2022-07-30T04:39:54.834Z,98.60
2022-07-30T04:42:22.742Z,98.20
2022-07-30T04:45:00.723Z,98.10
2022-07-30T04:47:32.757Z,98.20
2022-07-30T04:50:24.447Z,97.90
2022-07-30T04:52:56.088Z,97.70
2022-07-30T04:55:34.519Z,97.60
2022-07-30T04:58:03.411Z,97.30
2022-07-30T05:00:40.472Z,97.20
2022-07-30T05:03:13.310Z,97.10
2022-07-30T05:05:44.525Z,97.00
2022-07-30T05:08:13.255Z,96.80
2022-07-30T05:10:41.396Z,96.90
2022-07-30T05:13:14.375Z,96.80
2022-07-30T05:15:44.818Z,96.70
2022-07-30T05:18:13.952Z,96.50
2022-07-30T05:20:43.712Z,96.60
2022-07-30T05:23:21.665Z,96.60
2022-07-30T05:26:11.923Z,96.60
2022-07-30T05:28:44.219Z,96.40
2022-07-30T05:31:16.513Z,96.50
2022-07-30T05:33:56.890Z,96.90
2022-07-30T05:36:35.461Z,96.40
2022-07-30T05:39:03.795Z,96.40
2022-07-30T05:41:39.109Z,96.10
2022-07-30T05:44:20.793Z,96.20
2022-07-30T05:46:52.026Z,96.60
2022-07-30T05:49:20.093Z,97.00
2022-07-30T05:51:47.497Z,97.20
2022-07-30T05:54:18.022Z,96.90
2022-07-30T05:57:08.042Z,96.90
2022-07-30T05:59:38.573Z,96.80
2022-07-30T06:02:10.114Z,97.00
2022-07-30T06:04:57.711Z,97.10
2022-07-30T06:07:25.742Z,96.90
2022-07-30T06:10:00.017Z,97.20
2022-07-30T06:12:29.069Z,97.20
2022-07-30T06:14:56.905Z,97.10
2022-07-30T06:17:39.764Z,96.80
2022-07-30T06:20:21.350Z,96.40
2022-07-30T06:23:08.824Z,96.30
2022-07-30T06:26:02.341Z,96.00
2022-07-30T06:28:38.788Z,95.80
2022-07-30T06:31:16.443Z,95.50
2022-07-30T06:33:43.903Z,94.90
2022-07-30T06:36:14.197Z,94.70
2022-07-30T06:39:14.166Z,94.30
2022-07-30T06:41:54.679Z,94.10
2022-07-30T06:44:23.094Z,94.20
2022-07-30T06:47:09.190Z,94.00
2022-07-30T06:49:39.443Z,94.00
2022-07-30T06:52:09.753Z,93.80
2022-07-30T06:54:37.021Z,93.40
2022-07-30T06:57:15.562Z,93.10
2022-07-30T06:59:56.319Z,92.70
2022-07-30T07:02:39.700Z,92.70
2022-07-30T07:05:12.575Z,92.90
2022-07-30T07:07:56.508Z,92.50
2022-07-30T07:10:27.716Z,92.60
2022-07-30T07:13:07.482Z,92.40
2022-07-30T07:15:37.609Z,91.50
2022-07-30T07:18:09.006Z,91.40
2022-07-30T07:20:39.077Z,91.60
2022-07-30T07:23:12.282Z,92.00
2022-07-30T07:25:41.730Z,91.90
2022-07-30T07:28:11.591Z,92.00
2022-07-30T07:30:42.086Z,91.80
2022-07-30T07:33:10.077Z,91.90
2022-07-30T07:35:48.481Z,92.10
2022-07-30T07:38:22.666Z,92.30
2022-07-30T07:40:51.047Z,92.50
2022-07-30T07:43:18.740Z,92.30
2022-07-30T07:45:46.318Z,92.00
2022-07-30T07:48:14.127Z,92.00
2022-07-30T07:50:59.964Z,91.80
2022-07-30T07:53:30.347Z,91.80
2022-07-30T07:55:58.833Z,92.20
2022-07-30T07:58:26.889Z,91.90
2022-07-30T08:00:58.504Z,91.20
2022-07-30T08:03:45.747Z,91.30
2022-07-30T08:06:39.329Z,91.50
2022-07-30T08:09:24.801Z,91.60
2022-07-30T08:12:17.990Z,91.50
2022-07-30T08:15:04.376Z,91.00
2022-07-30T08:17:51.902Z,89.00
2022-07-30T08:20:24.976Z,88.40
2022-07-30T08:22:52.636Z,89.10
2022-07-30T08:25:24.305Z,88.30
2022-07-30T08:27:52.699Z,86.90
2022-07-30T08:30:20.702Z,87.20
2022-07-30T08:32:48.218Z,87.10
2022-07-30T08:35:15.631Z,87.30
2022-07-30T08:37:43.024Z,86.30
2022-07-30T08:40:10.955Z,86.20
2022-07-30T08:42:49.777Z,86.40
2022-07-30T08:45:18.254Z,86.50
2022-07-30T08:47:47.124Z,85.20
2022-07-30T08:50:23.081Z,84.00
2022-07-30T08:53:17.612Z,84.00
2022-07-30T08:55:46.056Z,83.20
2022-07-30T08:58:35.032Z,82.70
2022-07-30T09:01:05.198Z,83.10
2022-07-30T09:03:33.097Z,81.10
2022-07-30T09:06:03.465Z,81.50
2022-07-30T09:08:31.322Z,81.80
2022-07-30T09:10:59.737Z,82.30
2022-07-30T09:13:31.048Z,81.30
2022-07-30T09:16:00.530Z,80.30
2022-07-30T09:18:35.955Z,81.10
2022-07-30T09:21:21.496Z,81.50
2022-07-30T09:24:11.370Z,81.80
2022-07-30T09:26:56.362Z,81.60
2022-07-30T09:29:59.966Z,82.30
2022-07-30T09:32:51.648Z,81.70
2022-07-30T09:35:44.870Z,81.40
2022-07-30T09:38:13.127Z,82.70
2022-07-30T09:40:57.801Z,83.80
2022-07-30T09:43:51.792Z,84.40
2022-07-30T09:46:48.062Z,84.80
2022-07-30T09:49:37.317Z,83.40
2022-07-30T09:52:04.777Z,84.60
2022-07-30T09:54:52.583Z,86.30
2022-07-30T09:57:27.343Z,87.50
2022-07-30T10:00:23.711Z,89.00
2022-07-30T10:03:41.768Z,88.60
2022-07-30T10:06:34.538Z,88.30
2022-07-30T10:09:14.300Z,88.50
2022-07-30T10:11:45.028Z,89.70
2022-07-30T10:14:12.943Z,89.30
2022-07-30T10:16:41.647Z,88.70
2022-07-30T10:19:13.652Z,89.50
2022-07-30T10:22:24.844Z,89.00
2022-07-30T10:25:29.382Z,90.20
2022-07-30T10:28:20.713Z,90.30
2022-07-30T10:30:51.144Z,90.20
2022-07-30T10:33:34.866Z,89.90
2022-07-30T10:36:05.236Z,89.50
2022-07-30T10:38:39.151Z,89.10
2022-07-30T10:41:42.973Z,88.90
2022-07-30T10:44:29.969Z,88.90
2022-07-30T10:47:07.646Z,88.60
2022-07-30T10:49:41.543Z,89.80
2022-07-30T10:52:11.165Z,88.80
2022-07-30T10:54:47.472Z,88.00
2022-07-30T10:57:31.729Z,88.60
2022-07-30T11:00:00.765Z,89.30
2022-07-30T11:02:35.534Z,89.20
2022-07-30T11:05:44.096Z,89.40
2022-07-30T11:08:35.734Z,88.50
2022-07-30T11:12:15.956Z,88.40
2022-07-30T11:14:18.212Z,88.00
2022-07-30T11:16:51.332Z,87.90
2022-07-30T11:19:53.145Z,87.40
2022-07-30T11:22:27.239Z,86.30
2022-07-30T11:24:55.116Z,86.80
2022-07-30T11:27:36.195Z,87.40
2022-07-30T11:30:08.200Z,87.00
2022-07-30T11:32:36.778Z,86.40
2022-07-30T11:35:24.444Z,87.00
2022-07-30T11:38:18.915Z,85.60
2022-07-30T11:40:46.362Z,86.00
2022-07-30T11:43:19.645Z,86.00
2022-07-30T11:45:49.485Z,85.50
2022-07-30T11:48:19.332Z,84.90
2022-07-30T11:50:48.497Z,84.70
2022-07-30T11:53:20.692Z,83.50
2022-07-30T11:55:54.340Z,84.30
2022-07-30T11:58:28.405Z,84.80
2022-07-30T12:00:57.073Z,85.40
2022-07-30T12:03:26.801Z,85.60
2022-07-30T12:06:07.245Z,84.90
2022-07-30T12:08:42.278Z,85.10
2022-07-30T12:11:10.712Z,85.20
2022-07-30T12:13:42.868Z,84.80
2022-07-30T12:16:16.674Z,84.80
2022-07-30T12:18:46.941Z,85.00
2022-07-30T12:21:17.860Z,84.10
2022-07-30T12:23:59.581Z,84.00
2022-07-30T12:26:30.086Z,83.60
2022-07-30T12:28:59.526Z,83.20
2022-07-30T12:31:27.899Z,83.60
2022-07-30T12:33:59.159Z,84.10
2022-07-30T12:36:36.200Z,85.00
2022-07-30T12:39:06.607Z,86.10
2022-07-30T12:41:45.534Z,85.70
2022-07-30T12:44:36.722Z,86.20
2022-07-30T12:47:06.537Z,84.90
2022-07-30T12:49:36.632Z,84.40
2022-07-30T12:52:29.341Z,83.40
2022-07-30T12:55:12.330Z,84.10
2022-07-30T12:57:58.229Z,83.70
2022-07-30T13:00:47.064Z,84.80
2022-07-30T13:03:26.140Z,85.10
2022-07-30T13:05:57.389Z,85.40
2022-07-30T13:08:45.552Z,87.20
2022-07-30T13:11:13.220Z,88.10
2022-07-30T13:13:40.583Z,86.90
2022-07-30T13:16:07.967Z,82.90
2022-07-30T13:18:36.321Z,80.50
2022-07-30T13:21:05.325Z,80.70
2022-07-30T13:23:32.683Z,77.50
2022-07-30T13:26:00.108Z,78.30
2022-07-30T13:28:28.114Z,78.30
2022-07-30T13:30:56.903Z,75.10
2022-07-30T13:33:24.630Z,71.50
2022-07-30T13:35:52.233Z,68.40
2022-07-30T13:38:19.403Z,66.30
2022-07-30T13:40:46.753Z,66.00
2022-07-30T13:43:14.105Z,64.50
2022-07-30T13:45:41.495Z,61.50
2022-07-30T13:48:08.697Z,59.60
2022-07-30T13:50:35.972Z,59.30
2022-07-30T13:53:03.349Z,60.00
2022-07-30T13:55:30.919Z,61.50
2022-07-30T13:57:58.380Z,64.20
2022-07-30T14:00:25.692Z,66.50
2022-07-30T14:02:52.957Z,68.90
2022-07-30T14:05:20.243Z,69.50
2022-07-30T14:07:47.397Z,70.50
2022-07-30T14:10:14.576Z,71.50
2022-07-30T14:12:41.746Z,71.50
2022-07-30T14:15:09.888Z,72.60
2022-07-30T14:17:37.137Z,73.10
2022-07-30T14:20:04.992Z,73.70
2022-07-30T14:22:32.291Z,73.30
2022-07-30T14:25:00.397Z,73.20
2022-07-30T14:27:27.589Z,73.00
2022-07-30T14:29:54.757Z,73.80
2022-07-30T14:32:23.486Z,74.40
2022-07-30T14:34:50.963Z,74.00
2022-07-30T14:37:18.404Z,73.80
2022-07-30T14:39:45.589Z,73.40
2022-07-30T14:42:12.965Z,73.40
2022-07-30T14:44:41.623Z,72.90
2022-07-30T14:47:09.488Z,72.20
2022-07-30T14:49:36.886Z,71.70
2022-07-30T14:52:04.146Z,71.70
2022-07-30T14:54:31.550Z,70.00
2022-07-30T14:56:58.867Z,69.40
2022-07-30T14:59:27.717Z,70.20
2022-07-30T15:01:56.146Z,70.50
2022-07-30T15:04:23.689Z,71.00
2022-07-30T15:06:50.981Z,71.60
2022-07-30T15:09:21.828Z,71.50
2022-07-30T15:12:08.338Z,71.90
2022-07-30T15:14:40.278Z,72.40
2022-07-30T15:17:08.601Z,72.70
2022-07-30T15:19:35.762Z,72.30
2022-07-30T15:22:04.080Z,72.40
2022-07-30T15:24:34.332Z,72.70
2022-07-30T15:27:01.548Z,73.30
2022-07-30T15:29:30.186Z,74.10
2022-07-30T15:32:00.265Z,74.80
2022-07-30T15:34:28.559Z,75.20
2022-07-30T15:36:56.009Z,75.70
2022-07-30T15:39:23.711Z,76.10
2022-07-30T15:41:53.980Z,78.80
2022-07-30T15:44:21.241Z,83.80
2022-07-30T15:46:48.401Z,85.00
2022-07-30T15:49:15.665Z,86.20
2022-07-30T15:51:48.563Z,85.50
2022-07-30T15:54:22.810Z,85.30
2022-07-30T15:56:54.557Z,83.50
2022-07-30T15:59:29.339Z,84.10
2022-07-30T16:01:56.707Z,88.10
2022-07-30T16:04:31.794Z,91.20
2022-07-30T16:07:00.989Z,93.50
2022-07-30T16:09:28.426Z,96.30
2022-07-30T16:11:55.991Z,99.90
2022-07-30T16:14:23.510Z,99.90
2022-07-30T16:16:52.773Z,99.90
2022-07-30T16:19:19.991Z,99.90
2022-07-30T16:21:47.186Z,99.90
2022-07-30T16:24:14.376Z,99.90
2022-07-30T16:26:41.976Z,99.90
2022-07-30T16:29:13.557Z,99.90
2022-07-30T16:31:41.543Z,99.90
2022-07-30T16:34:08.719Z,99.90
2022-07-30T16:36:36.109Z,99.90
2022-07-30T16:39:04.116Z,99.90
2022-07-30T16:41:31.374Z,99.90
2022-07-30T16:43:58.698Z,99.90
2022-07-30T16:46:26.056Z,99.90
2022-07-30T16:48:53.331Z,99.90
2022-07-30T16:51:20.765Z,99.90
2022-07-30T16:53:48.752Z,99.90
2022-07-30T16:56:16.752Z,99.90
2022-07-30T16:58:44.337Z,99.90
2022-07-30T17:01:11.637Z,99.90
2022-07-30T17:03:38.882Z,99.90
2022-07-30T17:06:06.150Z,99.90
2022-07-30T17:08:33.474Z,99.90
2022-07-30T17:11:00.685Z,99.90
2022-07-30T17:13:28.405Z,99.90
2022-07-30T17:15:55.618Z,99.90
2022-07-30T17:18:24.178Z,99.90
2022-07-30T17:20:52.044Z,99.90
2022-07-30T17:23:19.246Z,99.90
2022-07-30T17:25:46.505Z,99.90
2022-07-30T17:28:13.874Z,99.90
2022-07-30T17:30:41.117Z,99.90
2022-07-30T17:33:08.529Z,99.90
2022-07-30T17:35:35.802Z,99.90
2022-07-30T17:38:03.262Z,99.90
2022-07-30T17:40:31.835Z,99.90
2022-07-30T17:43:04.169Z,99.90
2022-07-30T17:45:34.361Z,99.90
2022-07-30T17:48:02.446Z,99.90
2022-07-30T17:50:30.431Z,99.90
2022-07-30T17:52:57.872Z,99.90
2022-07-30T17:55:25.965Z,99.90
2022-07-30T17:57:53.066Z,99.90
2022-07-30T18:00:21.353Z,99.90
2022-07-30T18:02:48.964Z,99.90
2022-07-30T18:05:16.313Z,99.90
2022-07-30T18:07:44.434Z,99.90
2022-07-30T18:10:12.905Z,99.90
2022-07-30T18:12:48.320Z,99.90
2022-07-30T18:15:17.586Z,99.90
2022-07-30T18:17:45.385Z,99.90
2022-07-30T18:20:12.836Z,99.90
2022-07-30T18:22:40.897Z,99.90
2022-07-30T18:25:18.572Z,99.90
2022-07-30T18:27:47.847Z,99.90
2022-07-30T18:30:15.786Z,99.90
2022-07-30T18:32:43.983Z,99.90
2022-07-30T18:35:14.530Z,99.90
2022-07-30T18:37:43.513Z,99.90
2022-07-30T18:40:12.799Z,99.90
2022-07-30T18:42:40.008Z,99.90
2022-07-30T18:45:07.829Z,99.90
2022-07-30T18:47:35.164Z,99.90
2022-07-30T18:50:02.568Z,99.90
2022-07-30T18:52:30.296Z,99.90
2022-07-30T18:54:57.496Z,99.90
2022-07-30T18:57:24.688Z,99.90
2022-07-30T18:59:51.948Z,99.90
2022-07-30T19:02:19.375Z,99.90
2022-07-30T19:04:46.611Z,99.90
2022-07-30T19:07:13.850Z,99.90
2022-07-30T19:09:42.910Z,99.90
2022-07-30T19:12:10.145Z,99.90
2022-07-30T19:14:37.774Z,99.90
2022-07-30T19:17:13.937Z,99.90
2022-07-30T19:19:42.669Z,99.90
2022-07-30T19:22:10.140Z,99.90
2022-07-30T19:24:38.390Z,99.90
2022-07-30T19:29:38.720Z,99.90
2022-07-30T19:32:06.475Z,99.90
2022-07-30T19:34:34.690Z,99.90
2022-07-30T19:37:02.080Z,99.90
2022-07-30T19:39:29.294Z,99.90
2022-07-30T19:42:04.091Z,99.90
2022-07-30T19:44:32.393Z,99.90
2022-07-30T19:46:59.898Z,99.90
2022-07-30T19:49:29.632Z,99.90
2022-07-30T19:52:23.696Z,99.90
2022-07-30T19:54:52.849Z,99.90
2022-07-30T19:57:20.641Z,99.90
2022-07-30T19:59:59.930Z,99.90
2022-07-30T20:02:39.521Z,99.90
2022-07-30T20:05:11.048Z,99.90
2022-07-30T20:07:39.785Z,99.90
2022-07-30T20:10:11.127Z,99.90
2022-07-30T20:12:49.178Z,99.90
2022-07-30T20:15:17.439Z,99.90
2022-07-30T20:17:46.363Z,99.90
2022-07-30T20:20:14.762Z,99.90
2022-07-30T20:22:41.962Z,99.90
2022-07-30T20:25:10.959Z,99.90
2022-07-30T20:27:40.339Z,99.90
2022-07-30T20:30:09.479Z,99.90
2022-07-30T20:32:39.940Z,99.90
2022-07-30T20:35:12.000Z,99.90
2022-07-30T20:37:54.848Z,99.90
2022-07-30T20:40:24.488Z,99.90
2022-07-30T20:42:54.730Z,99.90
2022-07-30T20:45:24.684Z,99.90
2022-07-30T20:47:56.517Z,99.90
2022-07-30T20:50:30.412Z,99.90
2022-07-30T20:53:13.336Z,99.90
2022-07-30T20:55:41.316Z,99.90
2022-07-30T20:58:16.525Z,99.90
2022-07-30T21:00:49.823Z,99.90
2022-07-30T21:03:21.963Z,99.90
2022-07-30T21:05:51.275Z,99.90
2022-07-30T21:08:20.275Z,99.90
2022-07-30T21:10:47.753Z,99.90
2022-07-30T21:13:15.268Z,99.90
2022-07-30T21:15:45.414Z,99.90
2022-07-30T21:18:28.666Z,99.90
2022-07-30T21:20:56.987Z,99.90
2022-07-30T21:23:25.086Z,99.90
2022-07-30T21:26:01.445Z,99.90
2022-07-30T21:28:35.132Z,99.90
2022-07-30T21:31:06.978Z,99.90
2022-07-30T21:33:38.697Z,99.90
2022-07-30T21:36:10.446Z,99.90
2022-07-30T21:38:41.793Z,99.90
2022-07-30T21:41:13.888Z,99.90
2022-07-30T21:43:45.980Z,99.90
2022-07-30T21:46:25.076Z,99.90
2022-07-30T21:48:56.672Z,99.90
2022-07-30T21:51:26.672Z,99.90
2022-07-30T21:53:53.983Z,99.90
2022-07-30T21:56:21.291Z,99.90
2022-07-30T21:58:49.134Z,99.90
2022-07-30T22:01:21.691Z,99.90
2022-07-30T22:04:04.569Z,99.90
2022-07-30T22:06:39.510Z,99.90
2022-07-30T22:09:26.268Z,99.90
2022-07-30T22:11:56.855Z,99.90
2022-07-30T22:14:28.114Z,99.90
2022-07-30T22:16:55.527Z,99.90
2022-07-30T22:19:23.336Z,99.90
2022-07-30T22:21:53.298Z,99.90
2022-07-30T22:24:29.916Z,99.90
2022-07-30T22:27:11.585Z,99.90
2022-07-30T22:32:31.085Z,99.90
2022-07-30T22:34:58.823Z,99.90
2022-07-30T22:37:26.725Z,99.90
2022-07-30T22:40:02.029Z,99.90
2022-07-30T22:42:30.373Z,99.90
2022-07-30T22:44:57.661Z,99.90
2022-07-30T22:47:50.705Z,99.90
2022-07-30T22:50:12.532Z,99.90
2022-07-30T22:52:50.162Z,99.90
2022-07-30T22:55:26.520Z,99.90
2022-07-30T22:57:54.347Z,99.90
2022-07-30T23:00:28.141Z,99.90
2022-07-30T23:02:56.923Z,99.90
2022-07-30T23:05:25.102Z,99.90
2022-07-30T23:07:52.501Z,99.90
2022-07-30T23:10:21.066Z,99.90
2022-07-30T23:12:32.684Z,99.90
2022-07-30T23:12:52.001Z,99.90
2022-07-30T23:15:20.213Z,99.90
2022-07-30T23:17:47.941Z,99.90
2022-07-30T23:20:17.700Z,99.90
2022-07-30T23:22:44.958Z,99.90
2022-07-30T23:25:13.217Z,99.90
2022-07-30T23:27:41.404Z,99.90
2022-07-30T23:30:10.255Z,99.90
2022-07-30T23:32:38.451Z,99.90
2022-07-30T23:35:07.304Z,99.90
2022-07-30T23:37:48.036Z,99.90
2022-07-30T23:40:17.285Z,99.90
2022-07-30T23:42:44.584Z,99.90
2022-07-30T23:45:12.022Z,99.90
2022-07-30T23:48:01.263Z,99.90
2022-07-30T23:50:26.371Z,99.90
2022-07-30T23:52:53.699Z,99.90
2022-07-30T23:55:22.390Z,99.90
2022-07-30T23:57:49.558Z,99.90
